sensor_id;sensor_type;location;lat;lon;timestamp;temperature;humidity
45339;DHT22;31071;51.478;5.710;2022-08-18T00:04:36;19.00;99.90
45339;DHT22;31071;51.478;5.710;2022-08-18T00:07:04;18.90;99.90
45339;DHT22;31071;51.478;5.710;2022-08-18T00:09:30;18.80;99.90
45339;DHT22;31071;51.478;5.710;2022-08-18T00:11:56;18.70;99.90
45339;DHT22;31071;51.478;5.710;2022-08-18T00:14:21;18.60;99.90
45339;DHT22;31071;51.478;5.710;2022-08-18T00:16:53;18.60;99.90
45339;DHT22;31071;51.478;5.710;2022-08-18T00:19:19;18.60;99.90
45339;DHT22;31071;51.478;5.710;2022-08-18T00:21:44;18.60;99.90
45339;DHT22;31071;51.478;5.710;2022-08-18T00:24:10;18.60;99.90
45339;DHT22;31071;51.478;5.710;2022-08-18T00:26:36;18.50;99.90
45339;DHT22;31071;51.478;5.710;2022-08-18T00:29:02;18.50;99.90
45339;DHT22;31071;51.478;5.710;2022-08-18T00:31:28;18.50;99.90
45339;DHT22;31071;51.478;5.710;2022-08-18T00:33:53;18.60;99.90
45339;DHT22;31071;51.478;5.710;2022-08-18T00:36:19;18.70;99.90
45339;DHT22;31071;51.478;5.710;2022-08-18T00:38:45;18.80;99.90
45339;DHT22;31071;51.478;5.710;2022-08-18T00:41:10;18.80;99.90
45339;DHT22;31071;51.478;5.710;2022-08-18T00:43:44;18.90;99.90
45339;DHT22;31071;51.478;5.710;2022-08-18T00:46:22;18.90;99.90
45339;DHT22;31071;51.478;5.710;2022-08-18T00:48:49;19.00;99.90
45339;DHT22;31071;51.478;5.710;2022-08-18T00:51:29;19.10;99.90
45339;DHT22;31071;51.478;5.710;2022-08-18T00:56:42;19.20;99.90
45339;DHT22;31071;51.478;5.710;2022-08-18T01:01:40;19.20;99.90
45339;DHT22;31071;51.478;5.710;2022-08-18T01:04:32;19.20;99.90
45339;DHT22;31071;51.478;5.710;2022-08-18T01:07:10;19.20;99.90
45339;DHT22;31071;51.478;5.710;2022-08-18T01:09:38;19.20;99.90
45339;DHT22;31071;51.478;5.710;2022-08-18T01:12:04;19.20;99.90
45339;DHT22;31071;51.478;5.710;2022-08-18T01:14:29;19.20;99.90
45339;DHT22;31071;51.478;5.710;2022-08-18T01:16:56;19.20;99.90
45339;DHT22;31071;51.478;5.710;2022-08-18T01:19:41;19.20;99.90
45339;DHT22;31071;51.478;5.710;2022-08-18T01:24:57;19.20;99.90
45339;DHT22;31071;51.478;5.710;2022-08-18T01:27:50;19.20;99.90
45339;DHT22;31071;51.478;5.710;2022-08-18T01:30:16;19.20;99.90
45339;DHT22;31071;51.478;5.710;2022-08-18T01:32:42;19.20;99.90
45339;DHT22;31071;51.478;5.710;2022-08-18T01:35:11;19.20;99.90
45339;DHT22;31071;51.478;5.710;2022-08-18T01:37:37;19.20;99.90
45339;DHT22;31071;51.478;5.710;2022-08-18T01:40:05;19.20;99.90
45339;DHT22;31071;51.478;5.710;2022-08-18T01:42:32;19.20;99.90
45339;DHT22;31071;51.478;5.710;2022-08-18T01:44:58;19.20;99.90
45339;DHT22;31071;51.478;5.710;2022-08-18T01:47:32;19.10;99.90
45339;DHT22;31071;51.478;5.710;2022-08-18T01:49:59;19.10;99.90
45339;DHT22;31071;51.478;5.710;2022-08-18T01:52:25;19.10;99.90
45339;DHT22;31071;51.478;5.710;2022-08-18T01:54:52;19.20;99.90
45339;DHT22;31071;51.478;5.710;2022-08-18T01:57:19;19.10;99.90
45339;DHT22;31071;51.478;5.710;2022-08-18T01:59:45;19.10;99.90
45339;DHT22;31071;51.478;5.710;2022-08-18T02:02:21;19.00;99.90
45339;DHT22;31071;51.478;5.710;2022-08-18T02:04:51;19.00;99.90
45339;DHT22;31071;51.478;5.710;2022-08-18T02:07:17;19.00;99.90
45339;DHT22;31071;51.478;5.710;2022-08-18T02:09:44;18.90;99.90
45339;DHT22;31071;51.478;5.710;2022-08-18T02:12:10;18.90;99.90
45339;DHT22;31071;51.478;5.710;2022-08-18T02:14:36;18.90;99.90
45339;DHT22;31071;51.478;5.710;2022-08-18T02:17:04;18.90;99.90
45339;DHT22;31071;51.478;5.710;2022-08-18T02:19:41;19.00;99.90
45339;DHT22;31071;51.478;5.710;2022-08-18T02:22:08;19.00;99.90
45339;DHT22;31071;51.478;5.710;2022-08-18T02:24:35;18.90;99.90
45339;DHT22;31071;51.478;5.710;2022-08-18T02:27:01;18.90;99.90
45339;DHT22;31071;51.478;5.710;2022-08-18T02:29:26;18.90;99.90
45339;DHT22;31071;51.478;5.710;2022-08-18T02:31:52;18.80;99.90
45339;DHT22;31071;51.478;5.710;2022-08-18T02:34:17;18.90;99.90
45339;DHT22;31071;51.478;5.710;2022-08-18T02:36:44;18.90;99.90
45339;DHT22;31071;51.478;5.710;2022-08-18T02:39:10;18.90;99.90
45339;DHT22;31071;51.478;5.710;2022-08-18T02:41:36;18.90;99.90
45339;DHT22;31071;51.478;5.710;2022-08-18T02:44:02;18.90;99.90
45339;DHT22;31071;51.478;5.710;2022-08-18T02:46:28;18.90;99.90
45339;DHT22;31071;51.478;5.710;2022-08-18T02:48:53;18.90;99.90
45339;DHT22;31071;51.478;5.710;2022-08-18T02:51:20;19.00;99.90
45339;DHT22;31071;51.478;5.710;2022-08-18T02:53:47;18.90;99.90
45339;DHT22;31071;51.478;5.710;2022-08-18T02:56:15;18.90;99.90
45339;DHT22;31071;51.478;5.710;2022-08-18T02:59:02;18.90;99.90
45339;DHT22;31071;51.478;5.710;2022-08-18T03:01:31;18.90;99.90
45339;DHT22;31071;51.478;5.710;2022-08-18T03:03:58;18.90;99.90
45339;DHT22;31071;51.478;5.710;2022-08-18T03:06:26;18.90;99.90
45339;DHT22;31071;51.478;5.710;2022-08-18T03:08:52;18.90;99.90
45339;DHT22;31071;51.478;5.710;2022-08-18T03:11:27;18.80;99.90
45339;DHT22;31071;51.478;5.710;2022-08-18T03:13:53;18.80;99.90
45339;DHT22;31071;51.478;5.710;2022-08-18T03:16:19;18.90;99.90
45339;DHT22;31071;51.478;5.710;2022-08-18T03:18:46;18.70;99.90
45339;DHT22;31071;51.478;5.710;2022-08-18T03:21:15;18.70;99.90
45339;DHT22;31071;51.478;5.710;2022-08-18T03:23:41;18.70;99.90
45339;DHT22;31071;51.478;5.710;2022-08-18T03:26:09;18.70;99.90
45339;DHT22;31071;51.478;5.710;2022-08-18T03:28:37;18.70;99.90
45339;DHT22;31071;51.478;5.710;2022-08-18T03:31:04;18.60;99.90
45339;DHT22;31071;51.478;5.710;2022-08-18T03:33:29;18.60;99.90
45339;DHT22;31071;51.478;5.710;2022-08-18T03:36:06;18.60;99.90
45339;DHT22;31071;51.478;5.710;2022-08-18T03:38:32;18.60;99.90
45339;DHT22;31071;51.478;5.710;2022-08-18T03:40:58;18.70;99.90
45339;DHT22;31071;51.478;5.710;2022-08-18T03:43:24;18.70;99.90
45339;DHT22;31071;51.478;5.710;2022-08-18T03:45:49;18.70;99.90
45339;DHT22;31071;51.478;5.710;2022-08-18T03:48:15;18.70;99.90
45339;DHT22;31071;51.478;5.710;2022-08-18T03:50:41;18.70;99.90
45339;DHT22;31071;51.478;5.710;2022-08-18T03:53:07;18.70;99.90
45339;DHT22;31071;51.478;5.710;2022-08-18T03:55:32;18.70;99.90
45339;DHT22;31071;51.478;5.710;2022-08-18T03:58:01;18.70;99.90
45339;DHT22;31071;51.478;5.710;2022-08-18T04:00:31;18.70;99.90
45339;DHT22;31071;51.478;5.710;2022-08-18T04:03:01;18.60;99.90
45339;DHT22;31071;51.478;5.710;2022-08-18T04:05:27;18.70;99.90
45339;DHT22;31071;51.478;5.710;2022-08-18T04:07:54;18.60;99.90
45339;DHT22;31071;51.478;5.710;2022-08-18T04:10:22;18.70;99.90
45339;DHT22;31071;51.478;5.710;2022-08-18T04:12:47;18.70;99.90
45339;DHT22;31071;51.478;5.710;2022-08-18T04:15:13;18.80;99.90
45339;DHT22;31071;51.478;5.710;2022-08-18T04:17:38;18.80;99.90
45339;DHT22;31071;51.478;5.710;2022-08-18T04:20:05;18.80;99.90
45339;DHT22;31071;51.478;5.710;2022-08-18T04:22:30;18.70;99.90
45339;DHT22;31071;51.478;5.710;2022-08-18T04:24:58;18.70;99.90
45339;DHT22;31071;51.478;5.710;2022-08-18T04:27:26;18.70;99.90
45339;DHT22;31071;51.478;5.710;2022-08-18T04:29:52;18.70;99.90
45339;DHT22;31071;51.478;5.710;2022-08-18T04:32:17;18.70;99.90
45339;DHT22;31071;51.478;5.710;2022-08-18T04:34:44;18.70;99.90
45339;DHT22;31071;51.478;5.710;2022-08-18T04:37:09;18.70;99.90
45339;DHT22;31071;51.478;5.710;2022-08-18T04:39:35;18.70;99.90
45339;DHT22;31071;51.478;5.710;2022-08-18T04:42:01;18.70;99.90
45339;DHT22;31071;51.478;5.710;2022-08-18T04:44:28;18.70;99.90
45339;DHT22;31071;51.478;5.710;2022-08-18T04:46:53;18.70;99.90
45339;DHT22;31071;51.478;5.710;2022-08-18T04:49:23;18.70;99.90
45339;DHT22;31071;51.478;5.710;2022-08-18T04:51:50;18.70;99.90
45339;DHT22;31071;51.478;5.710;2022-08-18T04:54:36;18.70;99.90
45339;DHT22;31071;51.478;5.710;2022-08-18T04:57:18;18.70;99.90
45339;DHT22;31071;51.478;5.710;2022-08-18T04:59:46;18.70;99.90
45339;DHT22;31071;51.478;5.710;2022-08-18T05:02:13;18.60;99.90
45339;DHT22;31071;51.478;5.710;2022-08-18T05:04:41;18.70;99.90
45339;DHT22;31071;51.478;5.710;2022-08-18T05:07:12;18.70;99.90
45339;DHT22;31071;51.478;5.710;2022-08-18T05:09:38;18.80;99.90
45339;DHT22;31071;51.478;5.710;2022-08-18T05:12:06;18.70;99.90
45339;DHT22;31071;51.478;5.710;2022-08-18T05:14:32;18.80;99.90
45339;DHT22;31071;51.478;5.710;2022-08-18T05:16:59;18.70;99.90
45339;DHT22;31071;51.478;5.710;2022-08-18T05:19:32;18.70;99.90
45339;DHT22;31071;51.478;5.710;2022-08-18T05:22:00;18.80;99.90
45339;DHT22;31071;51.478;5.710;2022-08-18T05:24:26;18.80;99.90
45339;DHT22;31071;51.478;5.710;2022-08-18T05:26:54;18.80;99.90
45339;DHT22;31071;51.478;5.710;2022-08-18T05:29:21;18.80;99.90
45339;DHT22;31071;51.478;5.710;2022-08-18T05:31:48;18.80;99.90
45339;DHT22;31071;51.478;5.710;2022-08-18T05:34:14;18.80;99.90
45339;DHT22;31071;51.478;5.710;2022-08-18T05:36:57;18.90;99.90
45339;DHT22;31071;51.478;5.710;2022-08-18T05:39:52;18.80;99.90
45339;DHT22;31071;51.478;5.710;2022-08-18T05:42:19;18.90;99.90
45339;DHT22;31071;51.478;5.710;2022-08-18T05:44:49;18.80;99.90
45339;DHT22;31071;51.478;5.710;2022-08-18T05:47:28;18.90;99.90
45339;DHT22;31071;51.478;5.710;2022-08-18T05:49:56;18.90;99.90
45339;DHT22;31071;51.478;5.710;2022-08-18T05:55:04;18.90;99.90
45339;DHT22;31071;51.478;5.710;2022-08-18T05:58:15;18.90;99.90
45339;DHT22;31071;51.478;5.710;2022-08-18T06:00:50;18.90;99.90
45339;DHT22;31071;51.478;5.710;2022-08-18T06:03:25;19.00;99.90
45339;DHT22;31071;51.478;5.710;2022-08-18T06:05:55;19.00;99.90
45339;DHT22;31071;51.478;5.710;2022-08-18T06:08:26;19.00;99.90
45339;DHT22;31071;51.478;5.710;2022-08-18T06:10:53;19.10;99.90
45339;DHT22;31071;51.478;5.710;2022-08-18T06:13:19;19.10;99.90
45339;DHT22;31071;51.478;5.710;2022-08-18T06:22:06;19.20;99.90
45339;DHT22;31071;51.478;5.710;2022-08-18T06:25:02;19.10;99.90
45339;DHT22;31071;51.478;5.710;2022-08-18T06:27:51;19.20;99.90
45339;DHT22;31071;51.478;5.710;2022-08-18T06:30:25;19.20;99.90
45339;DHT22;31071;51.478;5.710;2022-08-18T06:36:11;19.30;99.90
45339;DHT22;31071;51.478;5.710;2022-08-18T06:39:11;19.40;99.90
45339;DHT22;31071;51.478;5.710;2022-08-18T06:41:47;19.50;99.90
45339;DHT22;31071;51.478;5.710;2022-08-18T06:44:33;19.40;99.90
45339;DHT22;31071;51.478;5.710;2022-08-18T06:47:19;19.50;99.90
45339;DHT22;31071;51.478;5.710;2022-08-18T06:50:02;19.50;99.90
45339;DHT22;31071;51.478;5.710;2022-08-18T06:52:38;19.60;99.90
45339;DHT22;31071;51.478;5.710;2022-08-18T06:55:08;19.60;99.90
45339;DHT22;31071;51.478;5.710;2022-08-18T06:57:38;19.70;99.90
45339;DHT22;31071;51.478;5.710;2022-08-18T07:02:51;19.90;99.90
45339;DHT22;31071;51.478;5.710;2022-08-18T07:05:22;19.90;99.90
45339;DHT22;31071;51.478;5.710;2022-08-18T07:10:41;19.80;99.90
45339;DHT22;31071;51.478;5.710;2022-08-18T07:15:39;19.90;99.90
45339;DHT22;31071;51.478;5.710;2022-08-18T07:18:07;20.00;99.90
45339;DHT22;31071;51.478;5.710;2022-08-18T07:20:55;20.00;99.90
45339;DHT22;31071;51.478;5.710;2022-08-18T07:23:27;20.00;99.90
45339;DHT22;31071;51.478;5.710;2022-08-18T07:26:12;20.00;99.90
45339;DHT22;31071;51.478;5.710;2022-08-18T07:28:42;20.10;99.90
45339;DHT22;31071;51.478;5.710;2022-08-18T07:34:35;20.40;99.90
45339;DHT22;31071;51.478;5.710;2022-08-18T07:37:14;20.40;99.90
45339;DHT22;31071;51.478;5.710;2022-08-18T07:39:54;20.40;99.90
45339;DHT22;31071;51.478;5.710;2022-08-18T07:45:08;20.50;99.90
45339;DHT22;31071;51.478;5.710;2022-08-18T07:47:55;20.40;99.90
45339;DHT22;31071;51.478;5.710;2022-08-18T07:50:23;20.50;99.90
45339;DHT22;31071;51.478;5.710;2022-08-18T07:55:40;20.50;99.90
45339;DHT22;31071;51.478;5.710;2022-08-18T07:58:33;20.50;99.90
45339;DHT22;31071;51.478;5.710;2022-08-18T08:03:51;20.70;99.90
45339;DHT22;31071;51.478;5.710;2022-08-18T08:06:26;20.80;99.90
45339;DHT22;31071;51.478;5.710;2022-08-18T08:12:00;21.10;99.90
45339;DHT22;31071;51.478;5.710;2022-08-18T08:14:47;21.10;99.90
45339;DHT22;31071;51.478;5.710;2022-08-18T08:25:40;21.00;99.90
45339;DHT22;31071;51.478;5.710;2022-08-18T08:33:26;21.00;99.90
45339;DHT22;31071;51.478;5.710;2022-08-18T08:36:05;21.00;99.90
45339;DHT22;31071;51.478;5.710;2022-08-18T08:41:15;21.00;99.90
45339;DHT22;31071;51.478;5.710;2022-08-18T08:44:33;21.10;99.90
45339;DHT22;31071;51.478;5.710;2022-08-18T08:47:04;21.40;99.90
45339;DHT22;31071;51.478;5.710;2022-08-18T08:49:39;21.50;99.90
45339;DHT22;31071;51.478;5.710;2022-08-18T08:52:49;21.50;99.90
45339;DHT22;31071;51.478;5.710;2022-08-18T08:55:21;21.50;99.90
45339;DHT22;31071;51.478;5.710;2022-08-18T08:58:10;21.60;99.90
45339;DHT22;31071;51.478;5.710;2022-08-18T09:00:38;21.60;99.90
45339;DHT22;31071;51.478;5.710;2022-08-18T09:14:40;22.00;99.90
45339;DHT22;31071;51.478;5.710;2022-08-18T09:17:20;22.10;99.90
45339;DHT22;31071;51.478;5.710;2022-08-18T09:23:09;22.50;99.90
45339;DHT22;31071;51.478;5.710;2022-08-18T09:28:13;23.10;99.90
45339;DHT22;31071;51.478;5.710;2022-08-18T09:39:19;23.90;99.90
45339;DHT22;31071;51.478;5.710;2022-08-18T09:42:16;23.90;99.90
45339;DHT22;31071;51.478;5.710;2022-08-18T09:49:55;23.30;99.90
45339;DHT22;31071;51.478;5.710;2022-08-18T09:57:26;22.90;99.90
45339;DHT22;31071;51.478;5.710;2022-08-18T09:59:58;22.80;99.90
45339;DHT22;31071;51.478;5.710;2022-08-18T10:07:52;23.20;99.90
45339;DHT22;31071;51.478;5.710;2022-08-18T10:10:30;23.20;99.90
45339;DHT22;31071;51.478;5.710;2022-08-18T10:15:56;23.10;99.90
45339;DHT22;31071;51.478;5.710;2022-08-18T10:23:51;23.50;99.90
45339;DHT22;31071;51.478;5.710;2022-08-18T10:34:37;24.60;99.90
45339;DHT22;31071;51.478;5.710;2022-08-18T10:37:22;24.40;99.90
45339;DHT22;31071;51.478;5.710;2022-08-18T10:39:53;24.40;99.90
45339;DHT22;31071;51.478;5.710;2022-08-18T10:42:32;24.50;99.90
45339;DHT22;31071;51.478;5.710;2022-08-18T10:45:36;24.70;99.90
45339;DHT22;31071;51.478;5.710;2022-08-18T10:48:10;24.70;99.90
45339;DHT22;31071;51.478;5.710;2022-08-18T10:51:04;24.70;99.90
45339;DHT22;31071;51.478;5.710;2022-08-18T10:57:00;24.50;99.90
45339;DHT22;31071;51.478;5.710;2022-08-18T10:59:39;24.60;99.90
45339;DHT22;31071;51.478;5.710;2022-08-18T11:05:11;24.60;99.90
45339;DHT22;31071;51.478;5.710;2022-08-18T11:07:37;24.70;99.90
45339;DHT22;31071;51.478;5.710;2022-08-18T11:10:20;24.90;99.90
45339;DHT22;31071;51.478;5.710;2022-08-18T11:15:53;26.20;98.10
45339;DHT22;31071;51.478;5.710;2022-08-18T11:18:29;26.90;98.30
45339;DHT22;31071;51.478;5.710;2022-08-18T11:26:34;27.20;96.10
45339;DHT22;31071;51.478;5.710;2022-08-18T11:29:33;28.10;94.80
45339;DHT22;31071;51.478;5.710;2022-08-18T11:34:41;29.70;91.80
45339;DHT22;31071;51.478;5.710;2022-08-18T11:37:19;30.40;88.90
45339;DHT22;31071;51.478;5.710;2022-08-18T11:39:51;31.30;86.10
45339;DHT22;31071;51.478;5.710;2022-08-18T11:42:19;31.60;83.10
45339;DHT22;31071;51.478;5.710;2022-08-18T11:44:52;33.20;79.90
45339;DHT22;31071;51.478;5.710;2022-08-18T11:47:23;33.90;72.20
45339;DHT22;31071;51.478;5.710;2022-08-18T11:49:56;33.40;70.40
45339;DHT22;31071;51.478;5.710;2022-08-18T11:52:28;33.80;69.60
45339;DHT22;31071;51.478;5.710;2022-08-18T11:55:06;34.00;68.60
45339;DHT22;31071;51.478;5.710;2022-08-18T11:57:51;34.50;66.10
45339;DHT22;31071;51.478;5.710;2022-08-18T12:00:40;34.50;63.80
45339;DHT22;31071;51.478;5.710;2022-08-18T12:03:33;34.30;63.80
45339;DHT22;31071;51.478;5.710;2022-08-18T12:06:30;34.30;63.00
45339;DHT22;31071;51.478;5.710;2022-08-18T12:11:55;33.70;65.40
45339;DHT22;31071;51.478;5.710;2022-08-18T12:14:24;34.10;63.80
45339;DHT22;31071;51.478;5.710;2022-08-18T12:16:53;33.70;64.00
45339;DHT22;31071;51.478;5.710;2022-08-18T12:19:20;34.20;63.50
45339;DHT22;31071;51.478;5.710;2022-08-18T12:21:54;35.80;61.90
45339;DHT22;31071;51.478;5.710;2022-08-18T12:24:28;35.40;59.20
45339;DHT22;31071;51.478;5.710;2022-08-18T12:26:55;35.40;58.80
45339;DHT22;31071;51.478;5.710;2022-08-18T12:29:23;35.10;58.60
45339;DHT22;31071;51.478;5.710;2022-08-18T12:31:51;35.40;60.30
45339;DHT22;31071;51.478;5.710;2022-08-18T12:34:17;35.80;57.10
45339;DHT22;31071;51.478;5.710;2022-08-18T12:36:44;35.00;58.00
45339;DHT22;31071;51.478;5.710;2022-08-18T12:39:10;35.30;58.20
45339;DHT22;31071;51.478;5.710;2022-08-18T12:41:35;35.50;57.40
45339;DHT22;31071;51.478;5.710;2022-08-18T12:44:01;35.00;57.60
45339;DHT22;31071;51.478;5.710;2022-08-18T12:46:28;35.00;58.10
45339;DHT22;31071;51.478;5.710;2022-08-18T12:48:54;34.60;58.20
45339;DHT22;31071;51.478;5.710;2022-08-18T12:51:20;33.50;59.50
45339;DHT22;31071;51.478;5.710;2022-08-18T12:53:46;32.40;62.30
45339;DHT22;31071;51.478;5.710;2022-08-18T12:58:42;31.10;64.00
45339;DHT22;31071;51.478;5.710;2022-08-18T13:01:09;30.40;66.80
45339;DHT22;31071;51.478;5.710;2022-08-18T13:03:34;29.80;67.40
45339;DHT22;31071;51.478;5.710;2022-08-18T13:06:00;29.40;69.00
45339;DHT22;31071;51.478;5.710;2022-08-18T13:08:25;28.80;70.40
45339;DHT22;31071;51.478;5.710;2022-08-18T13:10:51;28.70;72.10
45339;DHT22;31071;51.478;5.710;2022-08-18T13:13:18;28.70;70.70
45339;DHT22;31071;51.478;5.710;2022-08-18T13:15:52;28.60;71.60
45339;DHT22;31071;51.478;5.710;2022-08-18T13:18:19;28.60;70.80
45339;DHT22;31071;51.478;5.710;2022-08-18T13:20:45;28.60;71.60
45339;DHT22;31071;51.478;5.710;2022-08-18T13:23:10;28.50;71.90
45339;DHT22;31071;51.478;5.710;2022-08-18T13:25:36;28.30;72.30
45339;DHT22;31071;51.478;5.710;2022-08-18T13:28:03;28.20;73.30
45339;DHT22;31071;51.478;5.710;2022-08-18T13:30:28;27.80;73.80
45339;DHT22;31071;51.478;5.710;2022-08-18T13:32:54;27.90;74.40
45339;DHT22;31071;51.478;5.710;2022-08-18T13:35:21;27.90;74.00
45339;DHT22;31071;51.478;5.710;2022-08-18T13:37:46;28.30;74.00
45339;DHT22;31071;51.478;5.710;2022-08-18T13:40:12;29.10;72.10
45339;DHT22;31071;51.478;5.710;2022-08-18T13:42:47;29.50;71.40
45339;DHT22;31071;51.478;5.710;2022-08-18T13:45:20;30.50;68.30
45339;DHT22;31071;51.478;5.710;2022-08-18T13:47:47;30.60;67.40
45339;DHT22;31071;51.478;5.710;2022-08-18T13:50:14;30.00;68.50
45339;DHT22;31071;51.478;5.710;2022-08-18T13:52:40;29.50;69.70
45339;DHT22;31071;51.478;5.710;2022-08-18T13:55:10;29.20;71.00
45339;DHT22;31071;51.478;5.710;2022-08-18T13:57:38;28.90;71.70
45339;DHT22;31071;51.478;5.710;2022-08-18T14:00:08;28.60;72.80
45339;DHT22;31071;51.478;5.710;2022-08-18T14:02:38;28.60;73.00
45339;DHT22;31071;51.478;5.710;2022-08-18T14:05:04;28.60;73.40
45339;DHT22;31071;51.478;5.710;2022-08-18T14:07:32;28.60;72.90
45339;DHT22;31071;51.478;5.710;2022-08-18T14:09:58;29.10;73.00
45339;DHT22;31071;51.478;5.710;2022-08-18T14:12:23;29.80;70.70
45339;DHT22;31071;51.478;5.710;2022-08-18T14:14:53;29.60;69.90
45339;DHT22;31071;51.478;5.710;2022-08-18T14:17:23;29.60;70.00
45339;DHT22;31071;51.478;5.710;2022-08-18T14:19:50;29.30;71.90
45339;DHT22;31071;51.478;5.710;2022-08-18T14:22:35;30.40;69.50
45339;DHT22;31071;51.478;5.710;2022-08-18T14:25:19;31.90;64.70
45339;DHT22;31071;51.478;5.710;2022-08-18T14:28:03;32.90;62.20
45339;DHT22;31071;51.478;5.710;2022-08-18T14:30:29;32.40;63.10
45339;DHT22;31071;51.478;5.710;2022-08-18T14:32:56;31.90;64.30
45339;DHT22;31071;51.478;5.710;2022-08-18T14:35:22;31.90;62.30
45339;DHT22;31071;51.478;5.710;2022-08-18T14:37:48;31.20;63.20
45339;DHT22;31071;51.478;5.710;2022-08-18T14:40:14;31.00;63.40
45339;DHT22;31071;51.478;5.710;2022-08-18T14:42:39;31.10;63.30
45339;DHT22;31071;51.478;5.710;2022-08-18T14:45:07;30.80;64.10
45339;DHT22;31071;51.478;5.710;2022-08-18T14:47:33;30.30;61.90
45339;DHT22;31071;51.478;5.710;2022-08-18T14:49:59;29.60;66.90
45339;DHT22;31071;51.478;5.710;2022-08-18T14:52:26;29.40;68.90
45339;DHT22;31071;51.478;5.710;2022-08-18T14:54:52;29.10;67.30
45339;DHT22;31071;51.478;5.710;2022-08-18T14:57:19;29.10;68.30
45339;DHT22;31071;51.478;5.710;2022-08-18T14:59:45;29.20;65.90
45339;DHT22;31071;51.478;5.710;2022-08-18T15:02:11;29.20;66.10
45339;DHT22;31071;51.478;5.710;2022-08-18T15:04:37;29.20;68.10
45339;DHT22;31071;51.478;5.710;2022-08-18T15:07:23;29.10;68.20
45339;DHT22;31071;51.478;5.710;2022-08-18T15:09:49;28.90;69.80
45339;DHT22;31071;51.478;5.710;2022-08-18T15:12:14;28.70;70.80
45339;DHT22;31071;51.478;5.710;2022-08-18T15:14:48;28.30;72.60
45339;DHT22;31071;51.478;5.710;2022-08-18T15:17:17;28.30;71.10
45339;DHT22;31071;51.478;5.710;2022-08-18T15:19:42;28.40;70.50
45339;DHT22;31071;51.478;5.710;2022-08-18T15:22:09;27.90;72.70
45339;DHT22;31071;51.478;5.710;2022-08-18T15:24:53;27.90;72.20
45339;DHT22;31071;51.478;5.710;2022-08-18T15:27:37;27.30;75.00
45339;DHT22;31071;51.478;5.710;2022-08-18T15:30:09;27.30;73.10
45339;DHT22;31071;51.478;5.710;2022-08-18T15:32:35;27.70;72.60
45339;DHT22;31071;51.478;5.710;2022-08-18T15:35:03;27.80;74.10
45339;DHT22;31071;51.478;5.710;2022-08-18T15:37:32;28.00;72.60
45339;DHT22;31071;51.478;5.710;2022-08-18T15:40:21;28.40;72.80
45339;DHT22;31071;51.478;5.710;2022-08-18T15:42:54;28.50;71.60
45339;DHT22;31071;51.478;5.710;2022-08-18T15:45:29;28.50;71.10
45339;DHT22;31071;51.478;5.710;2022-08-18T15:48:00;28.40;70.50
45339;DHT22;31071;51.478;5.710;2022-08-18T15:50:26;28.60;70.70
45339;DHT22;31071;51.478;5.710;2022-08-18T15:53:01;28.70;69.80
45339;DHT22;31071;51.478;5.710;2022-08-18T15:55:33;28.60;70.20
45339;DHT22;31071;51.478;5.710;2022-08-18T15:57:59;28.40;71.20
45339;DHT22;31071;51.478;5.710;2022-08-18T16:00:28;28.50;70.80
45339;DHT22;31071;51.478;5.710;2022-08-18T16:02:56;28.60;71.30
45339;DHT22;31071;51.478;5.710;2022-08-18T16:05:24;28.50;70.70
45339;DHT22;31071;51.478;5.710;2022-08-18T16:07:51;28.20;72.30
45339;DHT22;31071;51.478;5.710;2022-08-18T16:10:19;28.10;72.00
45339;DHT22;31071;51.478;5.710;2022-08-18T16:12:45;28.20;72.30
45339;DHT22;31071;51.478;5.710;2022-08-18T16:15:13;28.00;71.60
45339;DHT22;31071;51.478;5.710;2022-08-18T16:17:39;27.90;72.60
45339;DHT22;31071;51.478;5.710;2022-08-18T16:20:05;27.60;73.50
45339;DHT22;31071;51.478;5.710;2022-08-18T16:22:33;27.40;73.40
45339;DHT22;31071;51.478;5.710;2022-08-18T16:24:59;27.10;75.30
45339;DHT22;31071;51.478;5.710;2022-08-18T16:27:26;27.00;74.70
45339;DHT22;31071;51.478;5.710;2022-08-18T16:29:54;27.00;76.80
45339;DHT22;31071;51.478;5.710;2022-08-18T16:32:20;26.40;79.60
45339;DHT22;31071;51.478;5.710;2022-08-18T16:34:45;26.30;79.30
45339;DHT22;31071;51.478;5.710;2022-08-18T16:37:11;26.10;81.00
45339;DHT22;31071;51.478;5.710;2022-08-18T16:39:36;25.90;81.60
45339;DHT22;31071;51.478;5.710;2022-08-18T16:42:02;25.80;81.80
45339;DHT22;31071;51.478;5.710;2022-08-18T16:44:29;25.70;83.00
45339;DHT22;31071;51.478;5.710;2022-08-18T16:46:58;25.80;82.70
45339;DHT22;31071;51.478;5.710;2022-08-18T16:49:26;26.10;81.90
45339;DHT22;31071;51.478;5.710;2022-08-18T16:51:52;26.20;82.40
45339;DHT22;31071;51.478;5.710;2022-08-18T16:54:17;26.30;82.10
45339;DHT22;31071;51.478;5.710;2022-08-18T16:56:43;26.40;82.00
45339;DHT22;31071;51.478;5.710;2022-08-18T16:59:08;26.60;81.80
45339;DHT22;31071;51.478;5.710;2022-08-18T17:02:02;26.80;79.70
45339;DHT22;31071;51.478;5.710;2022-08-18T17:04:46;27.00;80.30
45339;DHT22;31071;51.478;5.710;2022-08-18T17:07:11;27.10;78.60
45339;DHT22;31071;51.478;5.710;2022-08-18T17:09:37;27.00;79.40
45339;DHT22;31071;51.478;5.710;2022-08-18T17:12:03;27.20;77.30
45339;DHT22;31071;51.478;5.710;2022-08-18T17:14:30;27.30;77.00
45339;DHT22;31071;51.478;5.710;2022-08-18T17:16:58;27.50;76.90
45339;DHT22;31071;51.478;5.710;2022-08-18T17:19:27;27.50;79.30
45339;DHT22;31071;51.478;5.710;2022-08-18T17:21:54;27.40;78.60
45339;DHT22;31071;51.478;5.710;2022-08-18T17:24:20;27.50;77.10
45339;DHT22;31071;51.478;5.710;2022-08-18T17:26:48;27.30;79.90
45339;DHT22;31071;51.478;5.710;2022-08-18T17:29:21;27.20;80.10
45339;DHT22;31071;51.478;5.710;2022-08-18T17:31:54;27.00;78.40
45339;DHT22;31071;51.478;5.710;2022-08-18T17:34:30;27.00;79.10
45339;DHT22;31071;51.478;5.710;2022-08-18T17:37:03;26.80;80.30
45339;DHT22;31071;51.478;5.710;2022-08-18T17:39:56;26.70;82.20
45339;DHT22;31071;51.478;5.710;2022-08-18T17:42:26;26.40;79.10
45339;DHT22;31071;51.478;5.710;2022-08-18T17:44:57;26.30;78.60
45339;DHT22;31071;51.478;5.710;2022-08-18T17:50:29;26.20;79.50
45339;DHT22;31071;51.478;5.710;2022-08-18T17:53:16;26.00;80.70
45339;DHT22;31071;51.478;5.710;2022-08-18T17:55:46;25.90;81.10
45339;DHT22;31071;51.478;5.710;2022-08-18T17:58:26;25.80;82.30
45339;DHT22;31071;51.478;5.710;2022-08-18T18:00:53;25.80;82.40
45339;DHT22;31071;51.478;5.710;2022-08-18T18:03:19;25.70;83.10
45339;DHT22;31071;51.478;5.710;2022-08-18T18:05:54;25.60;83.90
45339;DHT22;31071;51.478;5.710;2022-08-18T18:08:50;25.50;84.50
45339;DHT22;31071;51.478;5.710;2022-08-18T18:11:21;25.50;84.70
45339;DHT22;31071;51.478;5.710;2022-08-18T18:13:48;25.40;85.80
45339;DHT22;31071;51.478;5.710;2022-08-18T18:16:24;25.30;86.60
45339;DHT22;31071;51.478;5.710;2022-08-18T18:18:55;25.10;88.10
45339;DHT22;31071;51.478;5.710;2022-08-18T18:21:24;25.00;89.40